Time;durP1;ratioP1;P1;durP2;ratioP2;P2;SDS_P1;SDS_P2;PMS_P1;PMS_P2;Temp;Humidity;BMP_temperature;BMP_pressure;BME280_temperature;BME280_humidity;BME280_pressure;Samples;Min_cycle;Max_cycle;Signal;HPM_P1;HPM_P2
2023/07/16 00:02:24;;;;;;;;;;;28.00;62.10;;;;;;5034150;28;86494;-49
2023/07/16 00:04:49;;;;;;;;;;;28.10;62.10;;;;;;5029937;28;87096;-52
2023/07/16 00:07:15;;;;;;;;;;;28.00;62.20;;;;;;5032703;28;87915;-49
2023/07/16 00:09:40;;;;;;;;;;;28.00;62.20;;;;;;5029168;28;88140;-51
2023/07/16 00:12:06;;;;;;;;;;;28.00;62.20;;;;;;5032470;27;88405;-50
2023/07/16 00:14:31;;;;;;;;;;;28.00;62.20;;;;;;5029839;28;87980;-47
2023/07/16 00:16:57;;;;;;;;;;;27.90;62.10;;;;;;5034116;28;87652;-49
2023/07/16 00:19:23;;;;;;;;;;;28.00;62.70;;;;;;5030974;28;88215;-56
2023/07/16 00:21:48;;;;;;;;;;;27.90;62.10;;;;;;5031677;28;87188;-51
2023/07/16 00:24:14;;;;;;;;;;;27.90;62.10;;;;;;5030891;28;87533;-48
2023/07/16 00:26:39;;;;;;;;;;;27.90;62.10;;;;;;5028937;28;87234;-48
2023/07/16 00:29:05;;;;;;;;;;;27.90;62.20;;;;;;5031269;27;87184;-50
2023/07/16 00:31:30;;;;;;;;;;;27.90;62.10;;;;;;5036616;28;87592;-49
2023/07/16 00:33:56;;;;;;;;;;;27.90;62.10;;;;;;5032020;28;88314;-48
2023/07/16 00:36:22;;;;;;;;;;;27.80;62.20;;;;;;5036789;28;87453;-47
2023/07/16 00:38:47;;;;;;;;;;;27.80;62.20;;;;;;5035683;28;87494;-48
2023/07/16 00:41:13;;;;;;;;;;;27.80;62.20;;;;;;5032112;28;87134;-45
2023/07/16 00:43:38;;;;;;;;;;;27.80;62.10;;;;;;5032214;27;88789;-51
2023/07/16 00:46:04;;;;;;;;;;;27.80;62.20;;;;;;5034817;28;88110;-47
2023/07/16 00:48:29;;;;;;;;;;;27.70;62.20;;;;;;5034418;28;87577;-49
2023/07/16 00:50:55;;;;;;;;;;;27.80;62.20;;;;;;5035003;28;87457;-49
2023/07/16 00:53:21;;;;;;;;;;;27.70;62.20;;;;;;5034471;28;87261;-47
2023/07/16 00:55:46;;;;;;;;;;;27.70;62.10;;;;;;5031996;28;87145;-49
2023/07/16 00:58:12;;;;;;;;;;;27.70;62.20;;;;;;5032285;27;88120;-50
2023/07/16 01:00:39;;;;;;;;;;;27.70;62.20;;;;;;5038155;28;88298;-52
2023/07/16 01:03:06;;;;;;;;;;;27.70;62.90;;;;;;5032380;28;87318;-51
2023/07/16 01:05:36;;;;;;;;;;;27.60;62.30;;;;;;5028591;28;88473;-51
2023/07/16 01:08:04;;;;;;;;;;;27.70;62.20;;;;;;5034915;28;87123;-47
2023/07/16 01:10:29;;;;;;;;;;;27.60;62.20;;;;;;5033448;28;88933;-49
2023/07/16 01:12:56;;;;;;;;;;;27.60;62.20;;;;;;5033705;28;87622;-48
2023/07/16 01:15:22;;;;;;;;;;;27.60;62.30;;;;;;5031974;28;86417;-49
2023/07/16 01:17:47;;;;;;;;;;;27.60;62.20;;;;;;5035234;28;87013;-47
2023/07/16 01:20:13;;;;;;;;;;;27.50;62.20;;;;;;5034802;28;88064;-46
2023/07/16 01:22:57;;;;;;;;;;;27.50;62.20;;;;;;5035117;28;87904;-48
2023/07/16 01:25:40;;;;;;;;;;;27.50;62.20;;;;;;5030946;28;88170;-50
2023/07/16 01:28:26;;;;;;;;;;;27.50;62.10;;;;;;5030083;28;87244;-52
2023/07/16 01:30:54;;;;;;;;;;;27.50;62.30;;;;;;5035307;28;89002;-49
2023/07/16 01:33:20;;;;;;;;;;;27.40;62.30;;;;;;5032481;28;87379;-53
2023/07/16 01:35:47;;;;;;;;;;;27.40;62.30;;;;;;5033933;28;87140;-49
2023/07/16 01:38:12;;;;;;;;;;;27.40;62.30;;;;;;5033569;28;87434;-51
2023/07/16 01:40:38;;;;;;;;;;;27.40;62.20;;;;;;5026243;28;89131;-49
2023/07/16 01:43:04;;;;;;;;;;;27.40;62.30;;;;;;5035816;28;87433;-52
2023/07/16 01:45:29;;;;;;;;;;;27.40;62.30;;;;;;5031757;28;90253;-47
2023/07/16 01:48:01;;;;;;;;;;;27.30;62.20;;;;;;5033892;28;88146;-50
2023/07/16 01:50:26;;;;;;;;;;;27.30;62.20;;;;;;5027830;28;89981;-53
2023/07/16 01:52:52;;;;;;;;;;;27.30;62.20;;;;;;5034632;28;88103;-50
2023/07/16 01:55:17;;;;;;;;;;;27.30;62.20;;;;;;5032290;28;87168;-47
2023/07/16 01:57:43;;;;;;;;;;;27.30;62.30;;;;;;5035447;28;87437;-47
2023/07/16 02:00:08;;;;;;;;;;;27.30;62.20;;;;;;5032230;28;88239;-49
2023/07/16 02:02:34;;;;;;;;;;;27.30;62.20;;;;;;5033434;28;87361;-46
2023/07/16 02:04:59;;;;;;;;;;;27.30;62.30;;;;;;5036664;28;87474;-46
2023/07/16 02:07:25;;;;;;;;;;;27.20;62.30;;;;;;5031390;28;87154;-44
2023/07/16 02:09:50;;;;;;;;;;;27.20;62.30;;;;;;5033659;28;88937;-44
2023/07/16 02:12:16;;;;;;;;;;;27.20;62.30;;;;;;5030884;28;89266;-48
2023/07/16 02:14:41;;;;;;;;;;;27.20;62.30;;;;;;5032874;28;87381;-49
2023/07/16 02:17:07;;;;;;;;;;;27.10;62.30;;;;;;5034663;28;87435;-50
2023/07/16 02:19:32;;;;;;;;;;;27.10;62.30;;;;;;5030483;28;88389;-51
2023/07/16 02:21:58;;;;;;;;;;;27.10;62.30;;;;;;5027154;28;87098;-53
2023/07/16 02:24:23;;;;;;;;;;;27.10;62.40;;;;;;5034388;28;88945;-52
2023/07/16 02:26:49;;;;;;;;;;;27.10;62.40;;;;;;5032689;28;87753;-47
2023/07/16 02:29:15;;;;;;;;;;;27.00;62.40;;;;;;5031737;28;87408;-49
2023/07/16 02:31:40;;;;;;;;;;;27.10;62.40;;;;;;5033254;28;88404;-45
2023/07/16 02:34:06;;;;;;;;;;;27.00;62.30;;;;;;5032589;28;87057;-45
2023/07/16 02:36:31;;;;;;;;;;;27.00;62.30;;;;;;5032240;28;87950;-46
2023/07/16 02:38:57;;;;;;;;;;;27.00;62.40;;;;;;5032787;28;87868;-53
2023/07/16 02:41:22;;;;;;;;;;;27.00;62.30;;;;;;5032150;28;87102;-46
2023/07/16 02:43:58;;;;;;;;;;;27.00;62.40;;;;;;5026604;28;87573;-49
2023/07/16 02:46:24;;;;;;;;;;;26.90;62.30;;;;;;5030503;28;88431;-53
2023/07/16 02:48:49;;;;;;;;;;;27.00;62.30;;;;;;5036572;28;87114;-49
2023/07/16 02:51:15;;;;;;;;;;;26.90;62.20;;;;;;5031441;28;88094;-52
2023/07/16 02:53:40;;;;;;;;;;;26.90;62.80;;;;;;5033350;28;86462;-47
2023/07/16 02:56:06;;;;;;;;;;;26.90;62.40;;;;;;5032389;28;87051;-54
2023/07/16 02:58:31;;;;;;;;;;;26.90;62.40;;;;;;5031192;28;87292;-50
2023/07/16 03:00:56;;;;;;;;;;;26.90;62.30;;;;;;5031185;28;90054;-52
2023/07/16 03:03:22;;;;;;;;;;;26.90;62.30;;;;;;5032985;28;88457;-46
2023/07/16 03:05:47;;;;;;;;;;;26.90;62.30;;;;;;5030821;28;88683;-49
2023/07/16 03:08:13;;;;;;;;;;;26.90;62.30;;;;;;5033685;28;87466;-51
2023/07/16 03:10:38;;;;;;;;;;;26.90;62.30;;;;;;5033345;28;87507;-49
2023/07/16 03:13:04;;;;;;;;;;;26.90;62.30;;;;;;5032801;28;87168;-48
2023/07/16 03:15:29;;;;;;;;;;;26.90;62.30;;;;;;5029456;28;87559;-49
2023/07/16 03:17:55;;;;;;;;;;;26.80;62.20;;;;;;5025724;28;87221;-52
2023/07/16 03:20:20;;;;;;;;;;;26.80;62.30;;;;;;5028240;28;87281;-48
2023/07/16 03:22:46;;;;;;;;;;;26.80;62.30;;;;;;5032757;28;87970;-49
2023/07/16 03:25:11;;;;;;;;;;;26.80;62.90;;;;;;5022190;28;89196;-54
2023/07/16 03:27:37;;;;;;;;;;;26.80;62.30;;;;;;5019134;28;87628;-50
2023/07/16 03:30:04;;;;;;;;;;;26.70;62.20;;;;;;5026301;28;88086;-46
2023/07/16 03:32:29;;;;;;;;;;;26.70;62.20;;;;;;5030918;28;87249;-48
2023/07/16 03:34:54;;;;;;;;;;;26.70;62.20;;;;;;5026934;28;88238;-47
2023/07/16 03:37:20;;;;;;;;;;;26.70;62.20;;;;;;5021595;28;88694;-44
2023/07/16 03:39:45;;;;;;;;;;;26.70;62.30;;;;;;5029219;28;87064;-49
2023/07/16 03:42:11;;;;;;;;;;;26.70;62.30;;;;;;5033893;28;87745;-47
2023/07/16 03:44:36;;;;;;;;;;;26.70;62.20;;;;;;5018186;28;88749;-47
2023/07/16 03:47:02;;;;;;;;;;;26.60;62.30;;;;;;5024158;28;87894;-52
2023/07/16 03:49:27;;;;;;;;;;;26.70;62.40;;;;;;5029503;28;88326;-54
2023/07/16 03:51:53;;;;;;;;;;;26.70;62.30;;;;;;5035142;28;88184;-48
2023/07/16 03:54:18;;;;;;;;;;;26.60;62.30;;;;;;5027316;28;87604;-52
2023/07/16 03:56:44;;;;;;;;;;;26.60;62.20;;;;;;5020064;28;88837;-46
2023/07/16 03:59:09;;;;;;;;;;;26.60;62.20;;;;;;5029397;28;87836;-51
2023/07/16 04:01:35;;;;;;;;;;;26.60;62.30;;;;;;5029403;28;87608;-48
2023/07/16 04:04:00;;;;;;;;;;;26.60;62.30;;;;;;5026858;28;88189;-51
2023/07/16 04:06:26;;;;;;;;;;;26.60;62.30;;;;;;5026492;28;87390;-47
2023/07/16 04:08:51;;;;;;;;;;;26.60;62.30;;;;;;5035726;28;87077;-52
2023/07/16 04:11:17;;;;;;;;;;;26.50;62.20;;;;;;5032540;28;88196;-45
2023/07/16 04:13:42;;;;;;;;;;;26.50;62.20;;;;;;5027986;28;88131;-50
2023/07/16 04:16:08;;;;;;;;;;;26.50;62.30;;;;;;5020008;28;87765;-49
2023/07/16 04:18:33;;;;;;;;;;;26.50;62.30;;;;;;5036338;27;87085;-52
2023/07/16 04:20:59;;;;;;;;;;;26.50;62.30;;;;;;5031956;28;87578;-56
2023/07/16 04:23:24;;;;;;;;;;;26.50;62.30;;;;;;5027006;28;88373;-49
2023/07/16 04:25:54;;;;;;;;;;;26.50;62.30;;;;;;5028925;28;87670;-47
2023/07/16 04:28:20;;;;;;;;;;;26.50;62.40;;;;;;5034972;28;87421;-48
2023/07/16 04:30:45;;;;;;;;;;;26.50;62.40;;;;;;5028475;28;86536;-52
2023/07/16 04:33:11;;;;;;;;;;;26.50;62.30;;;;;;5030663;28;87380;-49
2023/07/16 04:35:36;;;;;;;;;;;26.50;62.30;;;;;;5029767;28;87487;-46
2023/07/16 04:38:02;;;;;;;;;;;26.40;62.30;;;;;;5032940;28;88069;-55
2023/07/16 04:40:30;;;;;;;;;;;26.40;62.40;;;;;;5032526;28;88481;-52
2023/07/16 04:42:56;;;;;;;;;;;26.40;62.30;;;;;;5024591;28;88050;-48
2023/07/16 04:45:22;;;;;;;;;;;26.40;62.40;;;;;;5027250;28;87291;-49
2023/07/16 04:47:47;;;;;;;;;;;26.40;62.40;;;;;;5035351;28;87280;-49
2023/07/16 04:50:13;;;;;;;;;;;26.40;62.40;;;;;;5027862;28;88395;-49
2023/07/16 04:52:39;;;;;;;;;;;26.40;62.40;;;;;;5015875;28;87453;-47
2023/07/16 04:55:04;;;;;;;;;;;26.40;62.40;;;;;;5028906;28;86618;-47
2023/07/16 04:57:31;;;;;;;;;;;26.40;62.40;;;;;;5036741;28;88083;-52
2023/07/16 04:59:57;;;;;;;;;;;26.30;62.40;;;;;;5029818;28;87611;-52
2023/07/16 05:02:22;;;;;;;;;;;26.30;62.40;;;;;;5022425;28;89205;-53
2023/07/16 05:04:48;;;;;;;;;;;26.40;62.50;;;;;;5032081;28;87123;-52
2023/07/16 05:07:14;;;;;;;;;;;26.30;62.40;;;;;;5031955;27;88140;-44
2023/07/16 05:09:40;;;;;;;;;;;26.30;62.40;;;;;;5030332;28;89761;-50
2023/07/16 05:12:05;;;;;;;;;;;26.30;62.40;;;;;;5027788;28;87459;-49
2023/07/16 05:14:31;;;;;;;;;;;26.40;62.50;;;;;;5031070;28;87470;-47
2023/07/16 05:16:56;;;;;;;;;;;26.40;62.50;;;;;;5032125;28;88021;-48
2023/07/16 05:19:22;;;;;;;;;;;26.40;62.40;;;;;;5027600;28;87676;-50
2023/07/16 05:21:47;;;;;;;;;;;26.40;62.50;;;;;;5019749;28;88233;-48
2023/07/16 05:24:13;;;;;;;;;;;26.40;62.50;;;;;;5033636;28;87160;-45
2023/07/16 05:26:39;;;;;;;;;;;26.40;62.60;;;;;;5032851;27;88020;-53
2023/07/16 05:29:04;;;;;;;;;;;26.30;62.50;;;;;;5022113;28;87220;-50
2023/07/16 05:31:30;;;;;;;;;;;26.40;62.60;;;;;;5023703;28;87511;-51
2023/07/16 05:33:55;;;;;;;;;;;26.40;62.50;;;;;;5032632;27;86990;-51
2023/07/16 05:36:21;;;;;;;;;;;26.40;62.50;;;;;;5032627;28;88208;-51
2023/07/16 05:38:46;;;;;;;;;;;26.40;62.50;;;;;;5026646;28;87210;-50
2023/07/16 05:41:12;;;;;;;;;;;26.40;62.60;;;;;;5030951;28;88778;-49
2023/07/16 05:43:37;;;;;;;;;;;26.40;62.50;;;;;;5028243;28;86542;-49
2023/07/16 05:46:05;;;;;;;;;;;26.40;62.60;;;;;;5028413;28;87094;-47
2023/07/16 05:48:30;;;;;;;;;;;26.40;62.70;;;;;;5022805;28;89796;-49
2023/07/16 05:50:56;;;;;;;;;;;26.40;62.70;;;;;;5031392;28;87976;-45
2023/07/16 05:53:21;;;;;;;;;;;26.40;62.70;;;;;;5033328;27;89052;-53
2023/07/16 05:55:49;;;;;;;;;;;26.40;62.80;;;;;;5030687;28;88706;-47
2023/07/16 05:58:15;;;;;;;;;;;26.40;62.90;;;;;;5020799;28;87247;-50
2023/07/16 06:00:40;;;;;;;;;;;26.30;62.90;;;;;;5025239;28;87910;-44
2023/07/16 06:03:06;;;;;;;;;;;26.40;63.00;;;;;;5033419;28;87184;-46
2023/07/16 06:05:34;;;;;;;;;;;26.40;63.00;;;;;;5028961;28;87516;-48
2023/07/16 06:07:59;;;;;;;;;;;26.40;63.00;;;;;;5026288;27;88363;-51
2023/07/16 06:10:25;;;;;;;;;;;26.40;63.00;;;;;;5030936;28;87499;-50
2023/07/16 06:12:50;;;;;;;;;;;26.40;63.00;;;;;;5031944;28;86971;-49
2023/07/16 06:15:16;;;;;;;;;;;26.40;63.00;;;;;;5028504;28;88993;-47
2023/07/16 06:17:41;;;;;;;;;;;26.40;63.10;;;;;;5025315;28;88176;-44
2023/07/16 06:20:08;;;;;;;;;;;26.40;63.00;;;;;;5025207;28;87368;-49
2023/07/16 06:22:33;;;;;;;;;;;26.40;63.60;;;;;;5035883;28;87134;-49
2023/07/16 06:24:59;;;;;;;;;;;26.50;63.10;;;;;;5029314;28;88693;-49
2023/07/16 06:27:25;;;;;;;;;;;26.40;63.00;;;;;;5021641;28;89539;-51
2023/07/16 06:29:50;;;;;;;;;;;26.40;63.10;;;;;;5029323;28;87105;-52
2023/07/16 06:32:16;;;;;;;;;;;26.40;63.10;;;;;;5026633;28;87348;-49
2023/07/16 06:34:41;;;;;;;;;;;26.40;63.20;;;;;;5031723;28;88606;-52
2023/07/16 06:37:07;;;;;;;;;;;26.40;63.20;;;;;;5027349;28;87511;-47
2023/07/16 06:39:32;;;;;;;;;;;26.40;63.20;;;;;;5025952;28;88085;-51
2023/07/16 06:41:58;;;;;;;;;;;26.40;63.20;;;;;;5034207;28;88217;-48
2023/07/16 06:44:23;;;;;;;;;;;26.40;63.20;;;;;;5032208;28;87461;-53
2023/07/16 06:46:49;;;;;;;;;;;26.40;63.30;;;;;;5022465;28;88009;-48
2023/07/16 06:49:14;;;;;;;;;;;26.40;63.30;;;;;;5027643;28;87160;-51
2023/07/16 06:51:40;;;;;;;;;;;26.40;63.30;;;;;;5033174;28;87542;-50
2023/07/16 06:54:06;;;;;;;;;;;26.40;63.30;;;;;;5022382;28;88120;-46
2023/07/16 06:56:31;;;;;;;;;;;26.40;63.40;;;;;;5022676;28;87566;-51
2023/07/16 06:58:57;;;;;;;;;;;26.40;63.30;;;;;;5030757;28;87061;-48
2023/07/16 07:01:22;;;;;;;;;;;26.50;63.50;;;;;;5030177;28;88089;-50
2023/07/16 07:03:48;;;;;;;;;;;26.50;63.40;;;;;;5020978;28;88107;-49
2023/07/16 07:06:13;;;;;;;;;;;26.50;63.50;;;;;;5028790;28;88220;-53
2023/07/16 07:08:39;;;;;;;;;;;26.40;63.40;;;;;;5034585;28;87187;-50
2023/07/16 07:11:04;;;;;;;;;;;26.50;63.50;;;;;;5029954;28;87412;-54
2023/07/16 07:13:30;;;;;;;;;;;26.50;63.50;;;;;;5028121;28;90834;-51
2023/07/16 07:15:56;;;;;;;;;;;26.50;63.50;;;;;;5029359;28;87679;-53
2023/07/16 07:18:21;;;;;;;;;;;26.40;63.50;;;;;;5031449;27;88770;-50
2023/07/16 07:20:47;;;;;;;;;;;26.50;63.70;;;;;;5030665;28;86418;-44
2023/07/16 07:23:13;;;;;;;;;;;26.50;63.60;;;;;;5024860;28;87893;-47
2023/07/16 07:25:39;;;;;;;;;;;26.50;63.70;;;;;;5022126;28;87709;-44
2023/07/16 07:28:04;;;;;;;;;;;26.40;63.60;;;;;;5031123;28;88066;-47
2023/07/16 07:30:30;;;;;;;;;;;26.50;63.80;;;;;;5030016;28;87609;-51
2023/07/16 07:32:55;;;;;;;;;;;26.50;63.80;;;;;;5026418;28;88321;-52
2023/07/16 07:35:21;;;;;;;;;;;26.50;63.70;;;;;;5024071;28;87455;-49
2023/07/16 07:37:47;;;;;;;;;;;26.50;63.80;;;;;;5029536;27;87038;-52
2023/07/16 07:40:12;;;;;;;;;;;26.50;63.80;;;;;;5025773;28;87777;-51
2023/07/16 07:42:38;;;;;;;;;;;26.50;63.80;;;;;;5026505;28;87113;-51
2023/07/16 07:45:04;;;;;;;;;;;26.50;63.70;;;;;;5026915;28;87513;-49
2023/07/16 07:47:30;;;;;;;;;;;26.50;63.70;;;;;;5031369;28;88391;-52
2023/07/16 07:49:55;;;;;;;;;;;26.50;63.80;;;;;;5029267;28;88837;-47
2023/07/16 07:52:21;;;;;;;;;;;26.50;63.80;;;;;;5020478;28;89156;-48
2023/07/16 07:54:46;;;;;;;;;;;26.50;63.80;;;;;;5028071;28;87245;-54
2023/07/16 07:57:12;;;;;;;;;;;26.50;63.90;;;;;;5031484;28;88066;-56
2023/07/16 07:59:37;;;;;;;;;;;26.50;63.80;;;;;;5021713;28;87225;-49
2023/07/16 08:02:03;;;;;;;;;;;26.50;63.70;;;;;;5027133;28;88017;-46
2023/07/16 08:04:29;;;;;;;;;;;26.50;63.70;;;;;;5025328;28;88671;-51
2023/07/16 08:06:54;;;;;;;;;;;26.50;63.70;;;;;;5029937;28;87959;-53
2023/07/16 08:09:20;;;;;;;;;;;26.50;63.70;;;;;;5028474;28;86268;-47
2023/07/16 08:11:45;;;;;;;;;;;26.50;64.00;;;;;;5016042;27;87409;-48
2023/07/16 08:14:11;;;;;;;;;;;26.50;63.70;;;;;;5030052;28;87225;-48
2023/07/16 08:16:36;;;;;;;;;;;26.50;63.60;;;;;;5030280;28;89148;-51
2023/07/16 08:19:02;;;;;;;;;;;26.50;63.70;;;;;;5025736;28;88205;-52
2023/07/16 08:21:28;;;;;;;;;;;26.50;63.70;;;;;;5014998;28;87458;-49
2023/07/16 08:23:53;;;;;;;;;;;26.50;63.70;;;;;;5031160;28;87507;-51
2023/07/16 08:26:19;;;;;;;;;;;26.50;63.60;;;;;;5026937;28;88386;-45
2023/07/16 08:28:44;;;;;;;;;;;26.50;63.70;;;;;;5021623;28;87277;-46
2023/07/16 08:31:11;;;;;;;;;;;26.50;63.60;;;;;;5030050;27;87417;-49
2023/07/16 08:33:37;;;;;;;;;;;26.50;63.60;;;;;;5029516;28;86465;-46
2023/07/16 08:36:02;;;;;;;;;;;26.60;63.80;;;;;;5024516;27;87539;-50
2023/07/16 08:38:28;;;;;;;;;;;26.60;63.70;;;;;;5032758;28;87986;-49
2023/07/16 08:40:53;;;;;;;;;;;26.60;63.90;;;;;;5025053;28;88161;-49
2023/07/16 08:43:20;;;;;;;;;;;26.60;63.80;;;;;;5033150;28;88544;-48
2023/07/16 08:45:46;;;;;;;;;;;26.60;63.80;;;;;;5029184;28;87969;-51
2023/07/16 08:48:11;;;;;;;;;;;26.60;63.80;;;;;;5025013;28;87160;-52
2023/07/16 08:50:37;;;;;;;;;;;26.60;63.80;;;;;;5019187;28;87638;-50
2023/07/16 08:53:07;;;;;;;;;;;26.60;63.80;;;;;;5036880;28;91451;-52
2023/07/16 08:55:32;;;;;;;;;;;26.60;64.00;;;;;;5030165;28;87574;-57
2023/07/16 08:57:58;;;;;;;;;;;26.60;63.80;;;;;;5025347;28;88662;-49
2023/07/16 09:00:27;;;;;;;;;;;26.60;63.80;;;;;;5020481;28;88894;-47
2023/07/16 09:02:52;;;;;;;;;;;26.60;63.80;;;;;;5034281;28;87504;-49
2023/07/16 09:05:21;;;;;;;;;;;26.60;63.80;;;;;;5028950;28;89073;-46
2023/07/16 09:07:47;;;;;;;;;;;26.60;63.80;;;;;;5030872;28;87164;-54
2023/07/16 09:10:12;;;;;;;;;;;26.70;63.80;;;;;;5035083;28;87670;-54
2023/07/16 09:12:44;;;;;;;;;;;26.70;63.80;;;;;;5033703;28;88544;-46
2023/07/16 09:15:10;;;;;;;;;;;26.70;63.80;;;;;;5036380;28;87008;-51
2023/07/16 09:17:37;;;;;;;;;;;26.70;63.80;;;;;;5031322;28;87911;-47
2023/07/16 09:20:03;;;;;;;;;;;26.70;63.80;;;;;;5035440;28;87153;-49
2023/07/16 09:22:29;;;;;;;;;;;26.70;63.90;;;;;;5028515;28;86565;-51
2023/07/16 09:24:56;;;;;;;;;;;26.80;63.90;;;;;;5032071;28;88007;-50
2023/07/16 09:27:27;;;;;;;;;;;26.80;63.90;;;;;;5034596;28;87145;-51
2023/07/16 09:29:53;;;;;;;;;;;26.80;63.90;;;;;;5033574;28;88075;-49
2023/07/16 09:32:19;;;;;;;;;;;26.70;63.80;;;;;;5032804;28;87369;-50
2023/07/16 09:34:44;;;;;;;;;;;26.80;63.80;;;;;;5036303;28;87264;-48
2023/07/16 09:37:10;;;;;;;;;;;26.80;63.90;;;;;;5031556;28;87981;-49
2023/07/16 09:39:37;;;;;;;;;;;26.80;63.90;;;;;;5035179;28;87148;-51
2023/07/16 09:42:02;;;;;;;;;;;26.80;63.70;;;;;;5031799;27;87294;-51
2023/07/16 09:44:29;;;;;;;;;;;26.80;63.70;;;;;;5027425;28;87117;-51
2023/07/16 09:46:54;;;;;;;;;;;26.90;63.80;;;;;;5035195;28;86347;-50
2023/07/16 09:49:20;;;;;;;;;;;26.90;63.80;;;;;;5031628;28;87107;-48
2023/07/16 09:51:47;;;;;;;;;;;26.90;63.80;;;;;;5032533;28;88060;-46
2023/07/16 09:54:17;;;;;;;;;;;26.90;63.80;;;;;;5033643;28;88207;-49
2023/07/16 09:56:46;;;;;;;;;;;26.90;63.80;;;;;;5036404;28;87567;-50
2023/07/16 09:59:16;;;;;;;;;;;26.90;63.80;;;;;;5032053;28;87093;-50
2023/07/16 10:01:42;;;;;;;;;;;26.90;63.80;;;;;;5027215;28;87551;-46
2023/07/16 10:04:14;;;;;;;;;;;26.90;63.80;;;;;;5030473;28;88000;-48
2023/07/16 10:06:57;;;;;;;;;;;27.00;63.80;;;;;;5032922;27;87212;-47
2023/07/16 10:09:39;;;;;;;;;;;27.00;63.80;;;;;;5027977;28;87600;-50
2023/07/16 10:12:10;;;;;;;;;;;27.00;63.70;;;;;;5034818;28;88751;-46
2023/07/16 10:14:46;;;;;;;;;;;27.00;63.70;;;;;;5028229;28;87100;-46
2023/07/16 10:17:13;;;;;;;;;;;27.00;63.70;;;;;;5032770;28;87184;-51
2023/07/16 10:19:57;;;;;;;;;;;27.10;63.70;;;;;;5032725;28;90056;-46
2023/07/16 10:22:38;;;;;;;;;;;27.10;63.80;;;;;;5029709;28;89489;-50
2023/07/16 10:25:24;;;;;;;;;;;27.10;63.70;;;;;;5030316;28;88189;-50
2023/07/16 10:27:50;;;;;;;;;;;27.10;63.70;;;;;;5031125;28;87481;-53
2023/07/16 10:30:16;;;;;;;;;;;27.20;63.80;;;;;;5034375;28;87232;-49
2023/07/16 10:32:42;;;;;;;;;;;27.20;63.80;;;;;;5030601;28;87950;-51
2023/07/16 10:35:08;;;;;;;;;;;27.20;63.80;;;;;;5030839;28;87162;-47
2023/07/16 10:37:34;;;;;;;;;;;27.20;63.80;;;;;;5034780;28;87566;-52
2023/07/16 10:40:00;;;;;;;;;;;27.20;63.80;;;;;;5029724;28;87317;-49
2023/07/16 10:42:27;;;;;;;;;;;27.20;63.90;;;;;;5034715;28;87150;-47
2023/07/16 10:44:53;;;;;;;;;;;27.20;63.90;;;;;;5032055;28;88913;-50
2023/07/16 10:47:47;;;;;;;;;;;27.20;63.90;;;;;;5032923;28;87143;-49
2023/07/16 10:50:12;;;;;;;;;;;27.30;64.50;;;;;;5026045;28;90584;-51
2023/07/16 10:52:38;;;;;;;;;;;27.30;63.90;;;;;;5033287;28;88073;-51
2023/07/16 10:55:04;;;;;;;;;;;27.30;63.80;;;;;;5026942;28;87248;-56
2023/07/16 10:57:29;;;;;;;;;;;27.30;63.80;;;;;;5031410;28;87406;-50
2023/07/16 10:59:56;;;;;;;;;;;27.40;63.80;;;;;;5033215;28;89509;-54
2023/07/16 11:02:23;;;;;;;;;;;27.40;63.90;;;;;;5027301;28;86407;-45
2023/07/16 11:04:48;;;;;;;;;;;27.40;63.80;;;;;;5035985;28;87129;-48
2023/07/16 11:07:14;;;;;;;;;;;27.40;63.70;;;;;;5031370;28;87133;-53
2023/07/16 11:09:41;;;;;;;;;;;27.40;63.70;;;;;;5029805;28;88605;-46
2023/07/16 11:12:07;;;;;;;;;;;27.50;63.80;;;;;;5031634;28;89392;-46
2023/07/16 11:14:33;;;;;;;;;;;27.50;63.80;;;;;;5032732;28;87142;-49
2023/07/16 11:17:07;;;;;;;;;;;27.50;63.80;;;;;;5031541;27;86996;-52
2023/07/16 11:19:33;;;;;;;;;;;27.50;63.80;;;;;;5029001;28;89509;-48
2023/07/16 11:21:59;;;;;;;;;;;27.50;63.80;;;;;;5033666;28;87182;-48
2023/07/16 11:24:26;;;;;;;;;;;27.50;63.70;;;;;;5028177;28;87396;-50
2023/07/16 11:26:52;;;;;;;;;;;27.60;63.70;;;;;;5033032;28;90275;-52
2023/07/16 11:29:18;;;;;;;;;;;27.60;63.70;;;;;;5032419;27;88734;-53
2023/07/16 11:31:43;;;;;;;;;;;27.60;63.70;;;;;;5031924;28;87815;-52
2023/07/16 11:34:12;;;;;;;;;;;27.60;63.70;;;;;;5029036;28;88026;-48
2023/07/16 11:36:38;;;;;;;;;;;27.60;63.70;;;;;;5031196;27;88280;-54
2023/07/16 11:39:04;;;;;;;;;;;27.60;63.60;;;;;;5028962;28;89086;-54
2023/07/16 11:41:30;;;;;;;;;;;27.60;63.60;;;;;;5034086;28;86974;-52
2023/07/16 11:43:59;;;;;;;;;;;27.70;63.60;;;;;;5026506;28;87488;-51
2023/07/16 11:46:24;;;;;;;;;;;27.70;63.50;;;;;;5035496;28;88031;-50
2023/07/16 11:48:50;;;;;;;;;;;27.70;63.50;;;;;;5029627;28;87484;-50
2023/07/16 11:51:15;;;;;;;;;;;27.70;63.50;;;;;;5032583;28;87390;-58
2023/07/16 11:53:41;;;;;;;;;;;27.70;63.40;;;;;;5031894;28;87149;-52
2023/07/16 11:56:06;;;;;;;;;;;27.70;63.40;;;;;;5030243;28;87967;-46
2023/07/16 11:58:32;;;;;;;;;;;27.70;63.40;;;;;;5031286;28;89184;-48
2023/07/16 12:00:57;;;;;;;;;;;27.80;63.40;;;;;;5030901;28;87187;-47
2023/07/16 12:03:23;;;;;;;;;;;27.80;63.90;;;;;;5032894;28;87446;-52
2023/07/16 12:05:48;;;;;;;;;;;27.80;63.30;;;;;;5026891;28;91411;-53
2023/07/16 12:08:14;;;;;;;;;;;27.80;63.30;;;;;;5036326;28;87300;-52
2023/07/16 12:10:40;;;;;;;;;;;27.90;63.30;;;;;;5027116;28;89443;-52
2023/07/16 12:13:05;;;;;;;;;;;27.80;63.10;;;;;;5033700;28;87144;-54
2023/07/16 12:15:32;;;;;;;;;;;27.80;63.10;;;;;;5030890;28;86588;-45
2023/07/16 12:17:57;;;;;;;;;;;27.90;63.10;;;;;;5032235;28;89221;-51
2023/07/16 12:20:22;;;;;;;;;;;27.90;63.10;;;;;;5028455;28;88838;-55
2023/07/16 12:22:48;;;;;;;;;;;27.90;63.00;;;;;;5031742;28;87923;-54
2023/07/16 12:25:14;;;;;;;;;;;28.00;63.10;;;;;;5033049;28;87658;-54
2023/07/16 12:27:40;;;;;;;;;;;27.90;62.90;;;;;;5035197;28;87127;-46
2023/07/16 12:30:07;;;;;;;;;;;28.00;63.00;;;;;;5036744;28;87711;-51
2023/07/16 12:32:33;;;;;;;;;;;28.00;62.90;;;;;;5035910;28;87083;-47
2023/07/16 12:35:00;;;;;;;;;;;28.00;62.80;;;;;;5032788;27;87148;-53
2023/07/16 12:37:25;;;;;;;;;;;28.00;62.80;;;;;;5036295;28;88016;-52
2023/07/16 12:39:51;;;;;;;;;;;28.00;62.70;;;;;;5033049;28;86378;-49
2023/07/16 12:42:16;;;;;;;;;;;28.00;62.70;;;;;;5036142;28;87456;-47
2023/07/16 12:44:42;;;;;;;;;;;28.00;62.60;;;;;;5032930;28;88228;-48
2023/07/16 12:47:08;;;;;;;;;;;28.10;62.70;;;;;;5034713;28;88454;-51
2023/07/16 12:49:34;;;;;;;;;;;28.10;62.60;;;;;;5033234;28;88275;-55
2023/07/16 12:51:59;;;;;;;;;;;28.10;62.60;;;;;;5036881;28;89228;-48
2023/07/16 12:54:25;;;;;;;;;;;28.10;62.60;;;;;;5034555;28;87957;-53
2023/07/16 12:56:50;;;;;;;;;;;28.10;62.50;;;;;;5033368;28;87946;-47
2023/07/16 12:59:16;;;;;;;;;;;28.10;62.50;;;;;;5035330;28;87342;-53
2023/07/16 13:01:41;;;;;;;;;;;28.20;62.50;;;;;;5033427;28;87524;-51
2023/07/16 13:04:07;;;;;;;;;;;28.20;62.40;;;;;;5035203;28;87438;-52
2023/07/16 13:06:32;;;;;;;;;;;28.20;62.30;;;;;;5031569;28;87006;-51
2023/07/16 13:08:59;;;;;;;;;;;28.20;62.30;;;;;;5036420;28;88049;-53
2023/07/16 13:11:24;;;;;;;;;;;28.20;62.20;;;;;;5031723;28;88935;-49
2023/07/16 13:13:50;;;;;;;;;;;28.30;62.20;;;;;;5035536;28;87162;-52
2023/07/16 13:16:15;;;;;;;;;;;28.30;62.00;;;;;;5035057;28;88167;-51
2023/07/16 13:18:41;;;;;;;;;;;28.40;62.00;;;;;;5033165;28;87151;-46
2023/07/16 13:21:06;;;;;;;;;;;28.40;62.00;;;;;;5033138;28;87430;-49
2023/07/16 13:23:32;;;;;;;;;;;28.40;62.00;;;;;;5033656;28;88189;-52
2023/07/16 13:25:58;;;;;;;;;;;28.40;61.90;;;;;;5027936;28;87157;-53
2023/07/16 13:28:24;;;;;;;;;;;28.50;61.90;;;;;;5033826;28;87436;-51
2023/07/16 13:30:49;;;;;;;;;;;28.50;61.80;;;;;;5034347;28;89612;-56
2023/07/16 13:33:15;;;;;;;;;;;28.50;61.80;;;;;;5032851;28;87123;-53
2023/07/16 13:35:41;;;;;;;;;;;28.50;61.80;;;;;;5031414;28;88796;-52
2023/07/16 13:38:06;;;;;;;;;;;28.60;61.90;;;;;;5035688;28;87234;-51
2023/07/16 13:40:32;;;;;;;;;;;28.60;61.90;;;;;;5027613;28;87140;-52
2023/07/16 13:42:58;;;;;;;;;;;28.60;61.70;;;;;;5031728;28;88931;-50
2023/07/16 13:45:24;;;;;;;;;;;28.70;61.80;;;;;;5034664;28;87031;-49
2023/07/16 13:47:52;;;;;;;;;;;28.60;61.30;;;;;;5033161;28;87581;-45
2023/07/16 13:50:18;;;;;;;;;;;28.70;61.50;;;;;;5027065;28;87866;-51
2023/07/16 13:52:44;;;;;;;;;;;28.70;61.50;;;;;;5033579;28;86395;-53
2023/07/16 13:55:09;;;;;;;;;;;28.80;61.40;;;;;;5036604;28;87046;-50
2023/07/16 13:57:35;;;;;;;;;;;28.80;61.30;;;;;;5031224;28;87071;-49
2023/07/16 14:00:01;;;;;;;;;;;28.80;60.90;;;;;;5031586;27;89154;-48
2023/07/16 14:02:26;;;;;;;;;;;28.80;61.00;;;;;;5034293;28;87908;-53
2023/07/16 14:04:51;;;;;;;;;;;28.80;60.80;;;;;;5030969;28;87256;-50
2023/07/16 14:07:17;;;;;;;;;;;28.90;60.90;;;;;;5027435;28;87937;-52
2023/07/16 14:09:42;;;;;;;;;;;28.90;60.90;;;;;;5034576;28;88026;-47
2023/07/16 14:12:08;;;;;;;;;;;28.90;60.80;;;;;;5028280;28;87353;-53